Millwood, Missouri
Current Conditions -  °F | °C
As of 4:54 AM on Friday 31 Oct 2014 (Local Time) from KSET Reporting Station
Overcast Overcast  
Wind Chill:   Ceiling: 7000
Heat Index:   Visibility: 9mi
Dew Point:   Wind: 7mph
Humidity: 86%   Direction: 320°NW
Pressure: 30.12"   Gusts: NA
Location:  39.1404°N, 91.0631°W
Report Text: KSET 310954Z AUTO 32006KT 9SM OVC070 08/06 A3012 RMK AO2 SLP199 T00830061
Loading
Personal Weather Stations






























Interactive Weather Map
Tropical Storm Tracking
New forecast layout! Learn more

10-Day Weather Forecast

Advertisements
Track Severe Weather on mobile